createdAt,value
2022-09-21T00:01:40.511Z,11.90
2022-09-21T00:04:08.805Z,13.03
2022-09-21T00:06:38.226Z,13.97
2022-09-21T00:09:08.288Z,14.10
2022-09-21T00:11:37.234Z,14.40
2022-09-21T00:14:10.271Z,11.03
2022-09-21T00:16:41.112Z,15.20
2022-09-21T00:19:10.761Z,12.47
2022-09-21T00:21:40.012Z,15.37
2022-09-21T00:24:09.218Z,14.20
2022-09-21T00:26:37.467Z,12.60
2022-09-21T00:29:06.794Z,12.93
2022-09-21T00:31:35.186Z,11.43
2022-09-21T00:34:07.618Z,12.40
2022-09-21T00:36:36.219Z,10.70
2022-09-21T00:39:05.022Z,11.40
2022-09-21T00:41:35.242Z,11.20
2022-09-21T00:44:28.802Z,11.33
2022-09-21T00:47:01.471Z,12.50
2022-09-21T00:49:34.136Z,11.73
2022-09-21T00:52:06.147Z,14.63
2022-09-21T00:54:43.430Z,8.83
2022-09-21T00:57:12.736Z,10.03
2022-09-21T00:59:43.181Z,7.50
2022-09-21T01:02:11.603Z,11.33
2022-09-21T01:04:41.085Z,11.80
2022-09-21T01:07:14.893Z,12.93
2022-09-21T01:09:45.707Z,13.03
2022-09-21T01:12:31.079Z,12.23
2022-09-21T01:15:22.349Z,13.23
2022-09-21T01:18:02.864Z,8.77
2022-09-21T01:21:15.237Z,14.03
2022-09-21T01:24:39.260Z,12.80
2022-09-21T01:27:36.483Z,10.10
2022-09-21T01:30:10.594Z,12.43
2022-09-21T01:32:44.124Z,12.40
2022-09-21T01:35:18.992Z,14.77
2022-09-21T01:37:55.155Z,10.03
2022-09-21T01:40:35.841Z,7.23
2022-09-21T01:43:08.067Z,13.33
2022-09-21T01:45:42.974Z,18.33
2022-09-21T01:48:14.139Z,13.33
2022-09-21T01:50:47.695Z,11.50
2022-09-21T01:53:24.147Z,11.83
2022-09-21T01:55:58.688Z,13.33
2022-09-21T01:58:36.071Z,14.57
2022-09-21T02:01:10.422Z,11.47
2022-09-21T02:03:45.117Z,12.83
2022-09-21T02:06:15.867Z,9.97
2022-09-21T02:08:44.956Z,11.97
2022-09-21T02:11:13.966Z,12.50
2022-09-21T02:13:47.246Z,12.27
2022-09-21T02:16:34.957Z,15.27
2022-09-21T02:19:15.865Z,10.13
2022-09-21T02:21:59.390Z,12.07
2022-09-21T02:24:42.162Z,7.17
2022-09-21T02:27:25.305Z,11.10
2022-09-21T02:30:06.827Z,10.80
2022-09-21T02:32:46.862Z,11.90
2022-09-21T02:35:30.361Z,11.33
2022-09-21T02:38:10.424Z,9.03
2022-09-21T02:40:44.764Z,10.90
2022-09-21T02:43:21.552Z,14.07
2022-09-21T02:45:56.102Z,9.47
2022-09-21T02:48:33.509Z,12.60
2022-09-21T02:51:10.279Z,15.10
2022-09-21T02:53:42.094Z,9.63
2022-09-21T02:56:13.013Z,12.33
2022-09-21T02:58:46.437Z,9.90
2022-09-21T03:01:18.328Z,12.60
2022-09-21T03:03:48.199Z,10.13
2022-09-21T03:06:16.403Z,8.63
2022-09-21T03:08:44.578Z,17.87
2022-09-21T03:11:17.025Z,11.07
2022-09-21T03:13:45.613Z,13.10
2022-09-21T03:16:14.739Z,10.53
2022-09-21T03:18:44.039Z,10.23
2022-09-21T03:21:14.840Z,12.67
2022-09-21T03:23:43.104Z,14.03
2022-09-21T03:26:11.170Z,15.90
2022-09-21T03:28:39.417Z,12.63
2022-09-21T03:31:07.764Z,10.37
2022-09-21T03:33:35.910Z,10.63
2022-09-21T03:36:04.349Z,11.47
2022-09-21T03:38:33.745Z,15.43
2022-09-21T03:41:01.905Z,12.50
2022-09-21T03:43:30.278Z,11.97
2022-09-21T03:45:58.880Z,11.43
2022-09-21T03:48:27.122Z,9.17
2022-09-21T03:50:55.416Z,17.47
2022-09-21T03:53:23.501Z,13.30
2022-09-21T03:55:53.030Z,15.73
2022-09-21T03:58:22.088Z,9.77
2022-09-21T04:00:50.182Z,14.87
2022-09-21T04:03:18.312Z,17.97
2022-09-21T04:05:46.403Z,19.50
2022-09-21T04:08:14.549Z,36.07
2022-09-21T04:10:43.285Z,14.33
2022-09-21T04:13:13.518Z,15.90
2022-09-21T04:15:41.642Z,26.23
2022-09-21T04:18:09.797Z,21.93
2022-09-21T04:20:37.943Z,14.07
2022-09-21T04:23:09.809Z,15.17
2022-09-21T04:25:37.963Z,23.23
2022-09-21T04:28:06.189Z,15.83
2022-09-21T04:30:38.009Z,11.43
2022-09-21T04:33:06.685Z,11.73
2022-09-21T04:35:34.780Z,9.90
2022-09-21T04:38:03.307Z,17.20
2022-09-21T04:40:31.470Z,17.57
2022-09-21T04:42:59.696Z,14.07
2022-09-21T04:45:28.038Z,12.47
2022-09-21T04:47:57.451Z,10.43
2022-09-21T04:50:25.636Z,13.20
2022-09-21T04:53:04.811Z,14.77
2022-09-21T04:55:33.397Z,11.10
2022-09-21T04:58:01.901Z,16.53
2022-09-21T05:00:30.379Z,17.00
2022-09-21T05:02:59.882Z,10.90
2022-09-21T05:05:28.086Z,10.90
2022-09-21T05:07:56.156Z,11.53
2022-09-21T05:10:23.295Z,13.97
2022-09-21T05:12:52.448Z,10.10
2022-09-21T05:15:21.946Z,12.50
2022-09-21T05:17:50.024Z,12.83
2022-09-21T05:20:19.489Z,13.70
2022-09-21T05:22:47.563Z,14.93
2022-09-21T05:25:16.012Z,13.27
2022-09-21T05:27:44.125Z,15.73
2022-09-21T05:30:14.399Z,15.43
2022-09-21T05:32:49.601Z,14.87
2022-09-21T05:35:32.901Z,17.80
2022-09-21T05:38:09.423Z,17.03
2022-09-21T05:40:38.270Z,11.97
2022-09-21T05:43:07.046Z,15.40
2022-09-21T05:45:36.046Z,12.23
2022-09-21T05:48:15.694Z,13.67
2022-09-21T05:50:56.781Z,13.63
2022-09-21T05:53:55.088Z,14.97
2022-09-21T05:56:42.305Z,10.73
2022-09-21T05:59:36.837Z,11.40
2022-09-21T06:02:15.133Z,12.70
2022-09-21T06:04:44.141Z,15.43
2022-09-21T06:07:13.536Z,12.20
2022-09-21T06:09:43.356Z,16.90
2022-09-21T06:12:12.138Z,17.00
2022-09-21T06:14:40.588Z,21.83
2022-09-21T06:17:08.730Z,19.37
2022-09-21T06:19:36.927Z,18.27
2022-09-21T06:22:05.128Z,16.70
2022-09-21T06:24:34.558Z,28.07
2022-09-21T06:27:02.704Z,19.90
2022-09-21T06:29:31.029Z,22.57
2022-09-21T06:31:59.819Z,21.53
2022-09-21T06:34:27.886Z,25.27
2022-09-21T06:36:56.041Z,15.93
2022-09-21T06:39:24.339Z,25.80
2022-09-21T06:41:55.293Z,22.10
2022-09-21T06:44:23.632Z,18.73
2022-09-21T06:46:51.800Z,27.07
2022-09-21T06:49:19.843Z,48.60
2022-09-21T06:51:48.899Z,23.33
2022-09-21T06:54:17.405Z,24.60
2022-09-21T06:56:45.637Z,18.90
2022-09-21T06:59:15.273Z,16.43
2022-09-21T07:01:44.300Z,30.53
2022-09-21T07:04:12.565Z,22.45
2022-09-21T07:06:40.608Z,26.02
2022-09-21T07:11:56.820Z,29.30
2022-09-21T07:14:26.197Z,25.55
2022-09-21T07:16:54.335Z,23.80
2022-09-21T07:19:22.716Z,18.77
2022-09-21T07:21:50.880Z,18.23
2022-09-21T07:24:18.959Z,25.70
2022-09-21T07:26:47.107Z,23.10
2022-09-21T07:29:15.270Z,24.75
2022-09-21T07:31:46.038Z,17.48
2022-09-21T07:34:14.141Z,20.13
2022-09-21T07:36:43.144Z,22.85
2022-09-21T07:39:11.465Z,18.00
2022-09-21T07:41:39.591Z,21.60
2022-09-21T07:44:07.868Z,17.15
2022-09-21T07:46:39.107Z,15.82
2022-09-21T07:49:13.406Z,12.10
2022-09-21T07:51:41.510Z,14.55
2022-09-21T07:54:12.082Z,10.65
2022-09-21T07:56:40.698Z,11.95
2022-09-21T07:59:08.420Z,10.60
2022-09-21T08:01:39.018Z,9.52
2022-09-21T08:04:11.243Z,9.45
2022-09-21T08:06:41.004Z,10.38
2022-09-21T08:09:09.615Z,8.52
2022-09-21T08:11:39.015Z,10.68
2022-09-21T08:14:07.264Z,11.57
2022-09-21T08:16:35.852Z,11.75
2022-09-21T08:19:05.822Z,8.48
2022-09-21T08:21:35.444Z,12.02
2022-09-21T08:24:04.160Z,12.82
2022-09-21T08:26:33.457Z,12.52
2022-09-21T08:29:01.528Z,7.75
2022-09-21T08:31:30.313Z,10.13
2022-09-21T08:33:59.185Z,10.98
2022-09-21T08:36:27.745Z,12.98
2022-09-21T08:38:57.568Z,9.00
2022-09-21T08:41:46.094Z,7.10
2022-09-21T08:44:20.031Z,8.32
2022-09-21T08:46:55.714Z,12.57
2022-09-21T08:49:28.817Z,8.10
2022-09-21T08:52:02.996Z,9.68
2022-09-21T08:54:43.099Z,9.65
2022-09-21T08:57:14.571Z,8.73
2022-09-21T08:59:47.194Z,6.10
2022-09-21T09:02:39.831Z,5.35
2022-09-21T09:05:26.914Z,7.80
2022-09-21T09:08:31.502Z,7.50
2022-09-21T09:11:17.931Z,4.57
2022-09-21T09:14:29.803Z,4.80
2022-09-21T09:17:23.436Z,12.15
2022-09-21T09:19:57.387Z,9.85
2022-09-21T09:22:31.575Z,6.60
2022-09-21T09:25:05.407Z,6.18
2022-09-21T09:27:40.267Z,8.68
2022-09-21T09:30:20.551Z,13.13
2022-09-21T09:32:57.512Z,7.45
2022-09-21T09:35:33.127Z,7.85
2022-09-21T09:38:12.929Z,4.88
2022-09-21T09:41:03.554Z,7.32
2022-09-21T09:43:50.090Z,4.72
2022-09-21T09:46:31.266Z,4.63
2022-09-21T09:49:27.970Z,5.20
2022-09-21T09:51:56.255Z,2.50
2022-09-21T09:54:28.870Z,4.43
2022-09-21T09:56:57.008Z,4.32
2022-09-21T09:59:36.082Z,3.33
2022-09-21T10:02:09.010Z,3.63
2022-09-21T10:04:37.279Z,5.68
2022-09-21T10:07:05.517Z,8.80
2022-09-21T10:09:35.576Z,3.95
2022-09-21T10:12:19.532Z,3.33
2022-09-21T10:14:55.113Z,4.43
2022-09-21T10:17:26.434Z,8.32
2022-09-21T10:20:01.913Z,5.88
2022-09-21T10:22:30.945Z,5.70
2022-09-21T10:25:01.744Z,2.90
2022-09-21T10:27:35.088Z,3.78
2022-09-21T10:30:05.741Z,2.97
2022-09-21T10:32:35.072Z,2.67
2022-09-21T10:35:21.256Z,7.00
2022-09-21T10:37:53.544Z,3.60
2022-09-21T10:40:30.833Z,4.07
2022-09-21T10:43:01.446Z,1.92
2022-09-21T10:45:33.300Z,3.35
2022-09-21T10:48:10.669Z,2.20
2022-09-21T10:50:42.244Z,3.08
2022-09-21T10:53:23.516Z,3.20
2022-09-21T10:56:15.025Z,3.17
2022-09-21T10:59:23.334Z,1.95
2022-09-21T11:01:54.034Z,1.73
2022-09-21T11:04:34.094Z,1.42
2022-09-21T11:07:14.210Z,4.35
2022-09-21T11:09:53.337Z,1.50
2022-09-21T11:12:36.643Z,1.70
2022-09-21T11:15:24.317Z,2.55
2022-09-21T11:18:03.395Z,3.72
2022-09-21T11:20:43.058Z,2.15
2022-09-21T11:23:27.899Z,3.58
2022-09-21T11:26:08.129Z,2.55
2022-09-21T11:28:47.342Z,3.80
2022-09-21T11:32:09.340Z,4.22
2022-09-21T11:35:10.798Z,2.60
2022-09-21T11:38:05.322Z,3.50
2022-09-21T11:41:15.070Z,1.95
2022-09-21T11:44:10.177Z,3.60
2022-09-21T11:46:51.866Z,2.83
2022-09-21T11:50:29.076Z,2.72
2022-09-21T11:53:25.368Z,6.00
2022-09-21T11:56:43.723Z,3.45
2022-09-21T11:59:38.783Z,4.82
2022-09-21T12:02:37.268Z,5.85
2022-09-21T12:05:23.328Z,3.95
2022-09-21T12:08:14.709Z,3.17
2022-09-21T12:10:57.230Z,3.10
2022-09-21T12:13:36.143Z,2.67
2022-09-21T12:16:19.433Z,4.40
2022-09-21T12:18:57.629Z,4.22
2022-09-21T12:21:32.520Z,2.30
2022-09-21T12:24:13.560Z,3.38
2022-09-21T12:26:48.889Z,2.92
2022-09-21T12:29:25.278Z,2.40
2022-09-21T12:32:19.277Z,5.18
2022-09-21T12:34:54.928Z,2.83
2022-09-21T12:37:32.414Z,2.67
2022-09-21T12:40:09.821Z,5.68
2022-09-21T12:42:45.919Z,2.42
2022-09-21T12:45:23.919Z,2.75
2022-09-21T12:48:02.092Z,4.03
2022-09-21T12:50:38.553Z,2.72
2022-09-21T12:53:13.979Z,2.70
2022-09-21T12:55:53.833Z,3.38
2022-09-21T12:58:48.667Z,3.13
2022-09-21T13:01:32.307Z,2.42
2022-09-21T13:04:23.445Z,2.72
2022-09-21T13:07:30.111Z,4.30
2022-09-21T13:10:02.116Z,2.53
2022-09-21T13:12:39.654Z,2.35
2022-09-21T13:15:28.187Z,2.53
2022-09-21T13:18:02.666Z,3.38
2022-09-21T13:20:39.914Z,2.55
2022-09-21T13:23:17.850Z,3.65
2022-09-21T13:26:00.959Z,2.65
2022-09-21T13:29:00.364Z,2.85
2022-09-21T13:31:43.739Z,4.68
2022-09-21T13:34:34.481Z,2.33
2022-09-21T13:37:35.934Z,2.85
2022-09-21T13:40:50.080Z,3.08
2022-09-21T13:43:24.547Z,2.80
2022-09-21T13:45:59.037Z,2.40
2022-09-21T13:48:33.838Z,2.95
2022-09-21T13:51:09.180Z,2.00
2022-09-21T13:53:42.091Z,2.65
2022-09-21T13:56:22.545Z,2.15
2022-09-21T13:58:57.709Z,1.90
2022-09-21T14:01:49.695Z,2.67
2022-09-21T14:04:25.592Z,3.03
2022-09-21T14:06:58.123Z,1.83
2022-09-21T14:09:32.526Z,2.50
2022-09-21T14:12:07.052Z,4.47
2022-09-21T14:14:39.926Z,2.70
2022-09-21T14:17:40.150Z,2.45
2022-09-21T14:20:30.757Z,1.60
2022-09-21T14:23:29.279Z,1.85
2022-09-21T14:26:01.027Z,2.83
2022-09-21T14:28:38.277Z,2.45
2022-09-21T14:31:18.594Z,10.27
2022-09-21T14:33:54.900Z,1.83
2022-09-21T14:36:31.151Z,3.25
2022-09-21T14:39:04.322Z,4.45
2022-09-21T14:41:40.724Z,3.95
2022-09-21T14:44:19.675Z,3.30
2022-09-21T14:47:25.297Z,2.13
2022-09-21T14:50:29.951Z,4.60
2022-09-21T14:53:32.507Z,1.20
2022-09-21T14:56:22.975Z,1.30
2022-09-21T14:59:14.211Z,2.65
2022-09-21T15:01:56.962Z,1.40
2022-09-21T15:04:40.716Z,1.77
2022-09-21T15:07:49.228Z,4.93
2022-09-21T15:10:45.754Z,1.33
2022-09-21T15:13:45.788Z,1.42
2022-09-21T15:16:36.691Z,3.03
2022-09-21T15:19:22.310Z,1.25
2022-09-21T15:21:53.264Z,3.50
2022-09-21T15:24:29.509Z,1.90
2022-09-21T15:27:08.191Z,3.72
2022-09-21T15:29:38.457Z,4.05
2022-09-21T15:32:08.224Z,1.58
2022-09-21T15:34:36.477Z,2.20
2022-09-21T15:37:17.391Z,1.95
2022-09-21T15:39:47.840Z,2.10
2022-09-21T15:42:22.633Z,3.20
2022-09-21T15:45:11.295Z,3.97
2022-09-21T15:47:44.935Z,2.28
2022-09-21T15:50:15.710Z,2.53
2022-09-21T15:52:49.792Z,5.68
2022-09-21T15:55:22.937Z,4.90
2022-09-21T15:57:54.269Z,1.58
2022-09-21T16:00:26.498Z,3.03
2022-09-21T16:03:05.292Z,1.65
2022-09-21T16:05:44.240Z,3.72
2022-09-21T16:08:27.993Z,1.83
2022-09-21T16:11:18.895Z,6.68
2022-09-21T16:14:06.124Z,1.80
2022-09-21T16:16:54.410Z,2.38
2022-09-21T16:19:43.046Z,2.95
2022-09-21T16:22:14.025Z,1.90
2022-09-21T16:24:50.398Z,5.00
2022-09-21T16:27:22.432Z,2.72
2022-09-21T16:29:53.766Z,2.13
2022-09-21T16:32:31.634Z,1.30
2022-09-21T16:35:27.847Z,2.45
2022-09-21T16:37:58.632Z,1.45
2022-09-21T16:40:27.453Z,2.85
2022-09-21T16:42:56.453Z,2.10
2022-09-21T16:45:31.226Z,2.45
2022-09-21T16:47:59.462Z,2.80
2022-09-21T16:50:29.235Z,1.67
2022-09-21T16:52:57.509Z,3.15
2022-09-21T16:55:28.959Z,1.80
2022-09-21T16:57:57.768Z,2.72
2022-09-21T17:00:25.965Z,3.03
2022-09-21T17:02:54.144Z,1.73
2022-09-21T17:05:22.758Z,1.83
2022-09-21T17:07:56.115Z,3.15
2022-09-21T17:10:32.340Z,1.80
2022-09-21T17:13:00.412Z,8.15
2022-09-21T17:15:32.270Z,8.73
2022-09-21T17:18:00.697Z,12.60
2022-09-21T17:20:35.797Z,4.05
2022-09-21T17:23:05.998Z,6.88
2022-09-21T17:25:35.719Z,4.10
2022-09-21T17:28:13.467Z,4.40
2022-09-21T17:30:42.429Z,5.97
2022-09-21T17:33:11.593Z,2.08
2022-09-21T17:35:42.315Z,2.83
2022-09-21T17:38:14.481Z,2.80
2022-09-21T17:40:43.880Z,2.83
2022-09-21T17:43:35.881Z,4.00
2022-09-21T17:46:13.955Z,3.78
2022-09-21T17:48:43.358Z,5.60
2022-09-21T17:51:32.951Z,6.15
2022-09-21T17:54:02.537Z,3.38
2022-09-21T17:56:43.491Z,6.78
2022-09-21T17:59:31.540Z,4.45
2022-09-21T18:02:00.742Z,1.90
2022-09-21T18:04:34.928Z,4.35
2022-09-21T18:07:03.999Z,5.13
2022-09-21T18:09:34.368Z,3.90
2022-09-21T18:12:39.294Z,7.55
2022-09-21T18:15:19.650Z,3.53
2022-09-21T18:18:03.076Z,3.47
2022-09-21T18:20:48.720Z,4.40
2022-09-21T18:23:28.484Z,4.30
2022-09-21T18:25:58.833Z,5.05
2022-09-21T18:28:42.125Z,3.83
2022-09-21T18:31:31.392Z,3.95
2022-09-21T18:34:20.764Z,6.00
2022-09-21T18:37:01.813Z,6.38
2022-09-21T18:39:43.437Z,6.10
2022-09-21T18:42:40.294Z,4.43
2022-09-21T18:45:17.139Z,4.22
2022-09-21T18:48:06.276Z,6.32
2022-09-21T18:50:40.931Z,10.02
2022-09-21T18:53:22.286Z,6.28
2022-09-21T18:55:52.117Z,6.22
2022-09-21T18:58:22.357Z,7.10
2022-09-21T19:00:51.986Z,5.30
2022-09-21T19:03:21.633Z,4.78
2022-09-21T19:06:22.127Z,7.40
2022-09-21T19:09:07.952Z,7.97
2022-09-21T19:11:47.904Z,5.50
2022-09-21T19:14:31.022Z,8.63
2022-09-21T19:17:29.879Z,6.50
2022-09-21T19:20:24.264Z,7.97
2022-09-21T19:23:07.383Z,6.07
2022-09-21T19:25:48.817Z,5.65
2022-09-21T19:28:44.422Z,9.32
2022-09-21T19:31:18.781Z,7.30
2022-09-21T19:33:50.753Z,11.98
2022-09-21T19:36:19.417Z,9.30
2022-09-21T19:38:48.076Z,8.98
2022-09-21T19:41:40.401Z,10.07
2022-09-21T19:44:38.577Z,11.73
2022-09-21T19:47:19.343Z,13.77
2022-09-21T19:49:53.920Z,11.20
2022-09-21T19:52:31.371Z,10.85
2022-09-21T19:55:18.077Z,10.55
2022-09-21T19:58:04.846Z,11.60
2022-09-21T20:00:33.342Z,12.05
2022-09-21T20:03:11.415Z,9.65
2022-09-21T20:05:58.814Z,12.65
2022-09-21T20:08:37.272Z,16.88
2022-09-21T20:11:16.084Z,8.98
2022-09-21T20:14:20.921Z,11.45
2022-09-21T20:16:54.187Z,10.23
2022-09-21T20:19:39.549Z,12.20
2022-09-21T20:22:13.751Z,10.15
2022-09-21T20:24:55.051Z,9.75
2022-09-21T20:27:34.766Z,9.88
2022-09-21T20:30:05.485Z,12.77
2022-09-21T20:32:35.022Z,10.48
2022-09-21T20:35:09.888Z,14.23
2022-09-21T20:37:38.603Z,13.60
2022-09-21T20:40:09.508Z,13.15
2022-09-21T20:42:39.462Z,15.68
2022-09-21T20:45:10.887Z,9.07
2022-09-21T20:47:39.968Z,13.93
2022-09-21T20:50:11.859Z,10.95
2022-09-21T20:52:41.377Z,12.10
2022-09-21T20:55:12.518Z,12.52
2022-09-21T20:57:41.291Z,11.20
2022-09-21T21:00:13.021Z,10.60
2022-09-21T21:02:41.915Z,12.63
2022-09-21T21:05:12.132Z,13.27
2022-09-21T21:07:43.338Z,11.43
2022-09-21T21:10:13.943Z,13.93
2022-09-21T21:12:42.955Z,15.73
2022-09-21T21:15:12.434Z,12.50
2022-09-21T21:17:42.073Z,11.77
2022-09-21T21:20:11.971Z,14.32
2022-09-21T21:22:40.224Z,13.88
2022-09-21T21:25:09.948Z,17.55
2022-09-21T21:27:38.438Z,13.30
2022-09-21T21:30:09.567Z,11.52
2022-09-21T21:32:38.253Z,13.30
2022-09-21T21:35:08.293Z,10.23
2022-09-21T21:37:39.792Z,9.65
2022-09-21T21:40:10.518Z,13.82
2022-09-21T21:42:38.615Z,10.57
2022-09-21T21:45:08.113Z,10.80
2022-09-21T21:47:40.914Z,12.60
2022-09-21T21:50:10.265Z,12.80
2022-09-21T21:52:40.543Z,11.82
2022-09-21T21:55:10.101Z,15.68
2022-09-21T21:57:38.269Z,10.02
2022-09-21T22:00:09.181Z,11.45
2022-09-21T22:02:37.367Z,13.68
2022-09-21T22:05:06.348Z,14.52
2022-09-21T22:07:37.723Z,17.45
2022-09-21T22:10:09.103Z,15.93
2022-09-21T22:12:37.225Z,19.13
2022-09-21T22:15:06.246Z,11.68
2022-09-21T22:17:34.372Z,15.45
2022-09-21T22:20:03.037Z,14.10
2022-09-21T22:22:31.111Z,13.95
2022-09-21T22:24:59.298Z,12.73
2022-09-21T22:27:28.863Z,15.00
2022-09-21T22:29:56.988Z,11.57
2022-09-21T22:32:25.175Z,12.43
2022-09-21T22:34:53.486Z,13.82
2022-09-21T22:37:21.627Z,12.03
2022-09-21T22:39:49.821Z,12.82
2022-09-21T22:42:17.879Z,13.97
2022-09-21T22:44:47.310Z,17.05
2022-09-21T22:47:15.578Z,12.40
2022-09-21T22:49:43.749Z,12.35
2022-09-21T22:52:11.883Z,17.95
2022-09-21T22:54:39.995Z,15.13
2022-09-21T22:57:08.707Z,11.73
2022-09-21T22:59:36.984Z,20.40
2022-09-21T23:02:11.551Z,14.63
2022-09-21T23:04:39.742Z,13.15
2022-09-21T23:07:07.915Z,12.30
2022-09-21T23:09:36.023Z,12.50
2022-09-21T23:12:04.499Z,12.60
2022-09-21T23:14:32.691Z,12.63
2022-09-21T23:17:00.814Z,13.20
2022-09-21T23:19:32.160Z,14.00
2022-09-21T23:22:00.793Z,13.27
2022-09-21T23:24:29.193Z,13.10
2022-09-21T23:26:57.616Z,15.20
2022-09-21T23:29:25.738Z,15.82
2022-09-21T23:31:53.831Z,14.50
2022-09-21T23:34:22.113Z,14.47
2022-09-21T23:36:51.595Z,13.40
2022-09-21T23:39:19.785Z,13.80
2022-09-21T23:41:48.095Z,18.40
2022-09-21T23:44:16.213Z,15.00
2022-09-21T23:46:44.374Z,15.05
2022-09-21T23:49:12.601Z,14.18
2022-09-21T23:51:41.068Z,13.73
2022-09-21T23:54:10.837Z,13.05
2022-09-21T23:56:39.010Z,10.63
2022-09-21T23:59:07.251Z,11.20
